This is the latest recevied weather packets stored in our database for station/object KG5MMT-15. If no packets are shown the sender has not sent any weather packets the latest 10 day(s).
| Time | Temp. | Humidity | Pressure | Rain* | Wind** | Luminosity | Snow |
|---|---|---|---|---|---|---|---|
| 1777863741 | 10° C | 48% | 0 hPa | 0 mm | - | - | - |
| 1777863441 | 10.56° C | 48% | 0 hPa | 0 mm | - | - | - |
| 1777862841 | 11.11° C | 47% | 0 hPa | 0 mm | - | - | - |
| 1777847541 | 18.89° C | 22% | 0 hPa | 0 mm | - | - | - |
| 1777847241 | 18.89° C | 21% | 0 hPa | 0 mm | - | - | - |
| 1777846641 | 19.44° C | 21% | 0 hPa | 0 mm | - | - | - |
| 1777846341 | 19.44° C | 19% | 0 hPa | 0 mm | - | - | - |
| 1777845741 | 19.44° C | 17% | 0 hPa | 0 mm | - | - | - |
| 1777845441 | 20° C | 18% | 0 hPa | 0 mm | - | - | - |
| 1777845141 | 20.56° C | 16% | 0 hPa | 0 mm | - | - | - |
| 1777844241 | 20° C | 16% | 0 hPa | 0 mm | - | - | - |
| 1777843941 | 21.11° C | 17% | 0 hPa | 0 mm | - | - | - |
| 1777843641 | 20.56° C | 16% | 0 hPa | 0 mm | - | - | - |
| 1777843341 | 20.56° C | 16% | 0 hPa | 0 mm | - | - | - |
| 1777843041 | 20.56° C | 17% | 0 hPa | 0 mm | - | - | - |
| 1777842741 | 20° C | 19% | 0 hPa | 0 mm | - | - | - |
| 1777842441 | 20° C | 18% | 0 hPa | 0 mm | - | - | - |
| 1777841841 | 20° C | 17% | 0 hPa | 0 mm | - | - | - |
| 1777841541 | 20° C | 19% | 0 hPa | 0 mm | - | - | - |
| 1777840641 | 18.89° C | 17% | 0 hPa | 0 mm | - | - | - |
| 1777840341 | 20° C | 17% | 0 hPa | 0 mm | - | - | - |
| 1777840041 | 20° C | 20% | 0 hPa | 0 mm | - | - | - |
| 1777839741 | 19.44° C | 19% | 0 hPa | 0 mm | - | - | - |
| 1777839441 | 20° C | 18% | 0 hPa | 0 mm | - | - | - |
| 1777838841 | 20.56° C | 18% | 0 hPa | 0 mm | - | - | - |
* Rain latest hour (hover to see other rain measurements)
** Current wind speed in m/s (hover to see current wind gust speed)